Aérodrome :
LOGIN :

S'inscrire | Disclaimer

   EN    FR    IT 

 










Légende :    VFR   VFR Marginal   IFR   IFR Intensif   IFR Très Intensif
Visi : 
Plafond : 
>= 8 km
>= 3000ft
5 à 8 km
1000 à 3000 ft
1500m à 5 km
500 à 1000 ft
800 à 1500m
200 à 500 ft
< 800m
< 200 ft
Symboles :   Orages  Brouillard  Fortes neiges  Fortes précipitations  Vent > 20 kt
SIGMETs :   Divers  Orages  Givrage  Turbulence  Onde Orograph.  Cendres Volcan.







- Altitude de l'aérodrome : 782 ft
- Code IATA : BGY


LIME - Orio al Serio International - Bergamo

DERNIER METAR :
  • 222350Z VRB02KT 0500 R28/0225V0300U FG BKN001 05/04 Q1017

METARs EXPIRÉS :
  • 222320Z 10002KT 0300 R28/0300N FG BKN001 05/04 Q1017
  • 222250Z VRB02KT 0200 R28/0350V0450N FG BKN001 05/04 Q1017
  • 222220Z VRB01KT 0200 R28/0300N FG BKN001 05/04 Q1017
  • 222150Z VRB02KT 0300 R28/0450V0550U FG SCT001 05/04 Q1017
  • 222120Z VRB02KT 1500 0500E R28/0250V0600U BCFG SCT001 05/04 Q1017

TAF TAF LIME
Valide du 23 à 00h jusqu'au 24 à 00h UTC


222300Z 2300/2324 VRB05KT 2000 BR BKN010
TEMPO 2300/2306 0200 FG
Pas de NOTAMs connus pour ce terrain.



MET'MAP, la Météo Aéronautique d'un coup d'oeil ! - Copyright ORBIFLY Décembre 2007 - Disclaimer

ORBIFLY MET'MAP TEAM :

Programmation & Développement : Alexandra Zaïnal
Conception & Développement : Baudouin d'Aumeries
Co-Programmation & Développement : Marc-Olivier Méhu
Soutien technique & logistique : Manuel Goepfert

Contact : metmap@orbifly.com




SOURCES & CREDITS :

   NOAA